Terminal Aerodrome Forecast
Issued by NWS Albany, NY

Home | Current Version | Previous Version | Text Only | Print | Product List | Glossary On
Versions: 1 2 3 4 5 6 7 8 9 10 11 12 13 14 15 16 17 18 19 20
000
FTUS41 KALY 200500 RRA
TAFGFL
TAF
KGFL 200545Z 2006/2106 00000KT P6SM BKN060
      TEMPO 2009/2012 3SM BR BKN020
     FM201200 VRB03KT P6SM OVC020
     FM201500 15005KT P6SM VCSH SCT020 SCT200
     FM201900 15007KT P6SM SCT040 BKN100
     FM202300 VRB03KT P6SM VCSH OVC040=

USA.gov is the U.S. government's official web portal to all federal, state and local government web resources and services.